Edgar B Speer — WQZ9670 — position and weather

sailwx.info

Track history (hours):
 
Tides and Currents Weather Stations Pressure Air Temp Water Temp Dewpoint Dewpoint Depression Visibility Wind Speed Wind Dir Waves Ship Positions

Edgar B Speer

Owner: Great Lakes Fleet, Inc, DULUTH, MN. More information available from US FCC via Universal Licensing System and Coast Guard Vessel Documentation Center.

Last reported at 2017-Oct-19 02:43 UTC. Time now 2017-Oct-19 03:25 UTC.
Position N 47°01' W 091°40'.

Length 306 m; draft 8.6 m.

Type: Cargo ship. MMSI: 366971330.

Date/timePositionNaut miles runAvg speedWind from/ knotsBaromVisibWave heightAir tempDewpointWater temp
2017-Oct-19 02:43N 47°01' W 091°40'0 0.4
2017-Oct-19 02:24N 47°01' W 091°40'0 1.2
2017-Oct-19 02:00N 47°00' W 091°40'1 1.0
2017-Oct-19 01:30N 46°60' W 091°40'0 0.8
2017-Oct-19 01:00N 47°00' W 091°40'0 0.1
2017-Oct-19 00:30N 47°00' W 091°40'0 0.0
2017-Oct-19 00:00N 47°00' W 091°40'0 0.0
2017-Oct-18 23:30N 47°00' W 091°40'0 0.1
2017-Oct-18 23:00N 47°00' W 091°40'0 0.1
2017-Oct-18 22:30N 47°00' W 091°40'11 4.8
2017-Oct-18 20:18N 47°02' W 091°25'326 7.2
2017-Oct-16 22:44N 45°47' W 083°44'412.9
2017-Oct-16 22:28N 45°44' W 083°41'613.0
2017-Oct-16 22:00N 45°39' W 083°37'612.9
2017-Oct-16 21:30N 45°34' W 083°31'712.8
2017-Oct-16 20:56N 45°28' W 083°25'612.9
2017-Oct-16 20:30N 45°23' W 083°21'  
2017-Oct-13 11:47N 45°39' W 083°31'411.8
2017-Oct-13 11:28N 45°42' W 083°34'313 9.5
2017-Oct-12 02:35N 47°10' W 090°50'111.9
2017-Oct-12 02:30N 47°09' W 090°51'3011.8
2017-Oct-11 23:58N 47°02' W 091°34'510.0
2017-Oct-11 23:30N 47°01' W 091°40'310 6.7
2017-Oct-10 01:01N 46°22' W 084°12'2 7.5
2017-Oct-10 00:46N 46°20' W 084°11'3 6.1
2017-Oct-10 00:16N 46°18' W 084°07'2 7.7
2017-Oct-09 23:58N 46°16' W 084°07'3 6.4
2017-Oct-09 23:28N 46°13' W 084°07'11 8.5
2017-Oct-09 22:12N 46°04' W 083°59'310.8
2017-Oct-09 21:53N 46°02' W 083°54'4 9.4
2017-Oct-09 21:26N 45°58' W 083°53'611.7
2017-Oct-09 20:58N 45°53' W 083°50'612.8
2017-Oct-09 20:29N 45°48' W 083°45'612.6
2017-Oct-09 20:00N 45°43' W 083°40'612.4
2017-Oct-09 19:30N 45°38' W 083°35'612.4
2017-Oct-09 19:00N 45°33' W 083°30'612.4
2017-Oct-09 18:30N 45°28' W 083°25'612.5
2017-Oct-09 17:59N 45°23' W 083°20'  
Track history (hours):
 
Tides and Currents Weather Stations Pressure Air Temp Water Temp Dewpoint Dewpoint Depression Visibility Wind Speed Wind Dir Waves Ship Positions

Edgar B Speer

Owner: Great Lakes Fleet, Inc, DULUTH, MN. More information available from US FCC via Universal Licensing System and Coast Guard Vessel Documentation Center.

Last reported at 2017-Oct-19 02:43 UTC. Time now 2017-Oct-19 03:25 UTC.
Position N 47°01' W 091°40'.

Length 306 m; draft 8.6 m.

Type: Cargo ship. MMSI: 366971330.

Date/timePositionNaut miles runAvg speedWind from/ knotsBaromVisibWave heightAir tempDewpointWater temp
2017-Oct-19 02:43N 47°01' W 091°40'0 0.4
2017-Oct-19 02:24N 47°01' W 091°40'0 1.2
2017-Oct-19 02:00N 47°00' W 091°40'1 1.0
2017-Oct-19 01:30N 46°60' W 091°40'0 0.8
2017-Oct-19 01:00N 47°00' W 091°40'0 0.1
2017-Oct-19 00:30N 47°00' W 091°40'0 0.0
2017-Oct-19 00:00N 47°00' W 091°40'0 0.0
2017-Oct-18 23:30N 47°00' W 091°40'0 0.1
2017-Oct-18 23:00N 47°00' W 091°40'0 0.1
2017-Oct-18 22:30N 47°00' W 091°40'11 4.8
2017-Oct-18 20:18N 47°02' W 091°25'326 7.2
2017-Oct-16 22:44N 45°47' W 083°44'412.9
2017-Oct-16 22:28N 45°44' W 083°41'613.0
2017-Oct-16 22:00N 45°39' W 083°37'612.9
2017-Oct-16 21:30N 45°34' W 083°31'712.8
2017-Oct-16 20:56N 45°28' W 083°25'612.9
2017-Oct-16 20:30N 45°23' W 083°21'  
2017-Oct-13 11:47N 45°39' W 083°31'411.8
2017-Oct-13 11:28N 45°42' W 083°34'313 9.5
2017-Oct-12 02:35N 47°10' W 090°50'111.9
2017-Oct-12 02:30N 47°09' W 090°51'3011.8
2017-Oct-11 23:58N 47°02' W 091°34'510.0
2017-Oct-11 23:30N 47°01' W 091°40'310 6.7
2017-Oct-10 01:01N 46°22' W 084°12'2 7.5
2017-Oct-10 00:46N 46°20' W 084°11'3 6.1
2017-Oct-10 00:16N 46°18' W 084°07'2 7.7
2017-Oct-09 23:58N 46°16' W 084°07'3 6.4
2017-Oct-09 23:28N 46°13' W 084°07'11 8.5
2017-Oct-09 22:12N 46°04' W 083°59'310.8
2017-Oct-09 21:53N 46°02' W 083°54'4 9.4
2017-Oct-09 21:26N 45°58' W 083°53'611.7
2017-Oct-09 20:58N 45°53' W 083°50'612.8
2017-Oct-09 20:29N 45°48' W 083°45'612.6
2017-Oct-09 20:00N 45°43' W 083°40'612.4
2017-Oct-09 19:30N 45°38' W 083°35'612.4
2017-Oct-09 19:00N 45°33' W 083°30'612.4
2017-Oct-09 18:30N 45°28' W 083°25'612.5
2017-Oct-09 17:59N 45°23' W 083°20'  

Dump ship's entire track history